Time;durP1;ratioP1;P1;durP2;ratioP2;P2;SDS_P1;SDS_P2;PMS_P1;PMS_P2;Temp;Humidity;BMP_temperature;BMP_pressure;BME280_temperature;BME280_humidity;BME280_pressure;Samples;Min_cycle;Max_cycle;Signal;HPM_P1;HPM_P2
2022/11/28 00:01:50;;;;;;;159.27;25.20;;;;;;;;;;4981851;28;20069;-69
2022/11/28 00:04:15;;;;;;;228.57;34.97;;;;;;;;;;4982346;28;20050;-69
2022/11/28 00:06:45;;;;;;;66.35;18.15;;;;;;;;;;4981955;28;20050;-69
2022/11/28 00:09:12;;;;;;;66.15;21.65;;;;;;;;;;4980661;28;21301;-70
2022/11/28 00:11:39;;;;;;;79.50;25.05;;;;;;;;;;4981853;28;20153;-69
2022/11/28 00:14:05;;;;;;;75.57;22.88;;;;;;;;;;4982238;28;20458;-69
2022/11/28 00:16:30;;;;;;;78.90;26.17;;;;;;;;;;4981572;28;20516;-68
2022/11/28 00:18:58;;;;;;;71.93;20.55;;;;;;;;;;4981772;28;20054;-69
2022/11/28 00:21:24;;;;;;;78.85;23.40;;;;;;;;;;4979463;28;20050;-68
2022/11/28 00:23:49;;;;;;;66.43;23.65;;;;;;;;;;4981737;28;20080;-69
2022/11/28 00:26:22;;;;;;;55.67;19.33;;;;;;;;;;4981626;28;20084;-69
2022/11/28 00:28:48;;;;;;;66.95;20.80;;;;;;;;;;4981969;28;20057;-69
2022/11/28 00:31:16;;;;;;;47.78;18.13;;;;;;;;;;4980081;28;20061;-69
2022/11/28 00:33:42;;;;;;;71.30;21.88;;;;;;;;;;4981566;28;20097;-69
2022/11/28 00:36:09;;;;;;;68.85;22.70;;;;;;;;;;4981431;28;20049;-70
2022/11/28 00:38:34;;;;;;;64.45;23.67;;;;;;;;;;4981312;28;20050;-69
2022/11/28 00:41:06;;;;;;;57.63;22.25;;;;;;;;;;4980877;28;20047;-68
2022/11/28 00:43:31;;;;;;;45.03;19.88;;;;;;;;;;4981157;28;20042;-66
2022/11/28 00:45:57;;;;;;;64.60;23.65;;;;;;;;;;4981432;28;20388;-65
2022/11/28 00:48:23;;;;;;;66.22;23.15;;;;;;;;;;4981397;28;20211;-65
2022/11/28 00:50:49;;;;;;;44.08;18.00;;;;;;;;;;4981526;28;20517;-66
2022/11/28 00:53:15;;;;;;;72.85;24.50;;;;;;;;;;4980045;28;20096;-66
2022/11/28 00:55:40;;;;;;;57.22;18.55;;;;;;;;;;4981078;28;20128;-66
2022/11/28 00:58:06;;;;;;;60.30;21.83;;;;;;;;;;4981509;28;20180;-67
2022/11/28 01:00:32;;;;;;;69.40;24.92;;;;;;;;;;4980805;28;20046;-67
2022/11/28 01:02:58;;;;;;;68.32;23.75;;;;;;;;;;4996019;28;20553;-67
2022/11/28 01:05:24;;;;;;;65.47;23.25;;;;;;;;;;4980216;28;20160;-67
2022/11/28 01:07:49;;;;;;;65.25;22.50;;;;;;;;;;4981028;28;20137;-66
2022/11/28 01:10:14;;;;;;;75.95;24.92;;;;;;;;;;4980899;28;20181;-66
2022/11/28 01:12:40;;;;;;;72.90;25.85;;;;;;;;;;4981384;28;20153;-66
2022/11/28 01:15:08;;;;;;;80.90;26.20;;;;;;;;;;4979790;28;20050;-65
2022/11/28 01:17:34;;;;;;;68.72;23.85;;;;;;;;;;4980762;28;20074;-66
2022/11/28 01:20:00;;;;;;;72.70;23.10;;;;;;;;;;4981305;28;20054;-66
2022/11/28 01:22:25;;;;;;;57.92;20.52;;;;;;;;;;4978641;28;20046;-66
2022/11/28 01:24:51;;;;;;;59.95;22.90;;;;;;;;;;4979801;28;20073;-66
2022/11/28 01:27:16;;;;;;;50.90;20.60;;;;;;;;;;4978067;28;20072;-66
2022/11/28 01:29:42;;;;;;;59.95;21.65;;;;;;;;;;4979034;28;20054;-65
2022/11/28 01:32:07;;;;;;;56.83;21.75;;;;;;;;;;4977942;28;20141;-66
2022/11/28 01:34:32;;;;;;;51.60;21.92;;;;;;;;;;4981042;28;20137;-67
2022/11/28 01:36:59;;;;;;;51.55;21.33;;;;;;;;;;4980239;28;20105;-67
2022/11/28 01:39:25;;;;;;;53.97;20.08;;;;;;;;;;4981002;28;20050;-67
2022/11/28 01:41:50;;;;;;;51.45;21.30;;;;;;;;;;4980670;28;20053;-67
2022/11/28 01:44:16;;;;;;;62.10;21.88;;;;;;;;;;4980284;28;20046;-67
2022/11/28 01:46:42;;;;;;;77.70;24.00;;;;;;;;;;4982107;28;20512;-68
2022/11/28 01:49:17;;;;;;;80.47;22.63;;;;;;;;;;4984225;28;20137;-67
2022/11/28 01:52:01;;;;;;;84.72;24.63;;;;;;;;;;4984574;28;20050;-68
2022/11/28 01:54:28;;;;;;;82.55;21.55;;;;;;;;;;4983778;28;20078;-68
2022/11/28 01:56:59;;;;;;;82.22;24.40;;;;;;;;;;4984273;28;20050;-68
2022/11/28 01:59:27;;;;;;;97.40;23.65;;;;;;;;;;4984292;28;20105;-68
2022/11/28 02:01:52;;;;;;;71.10;23.13;;;;;;;;;;4984575;28;20454;-68
2022/11/28 02:04:18;;;;;;;82.75;22.42;;;;;;;;;;4984265;28;20050;-68
2022/11/28 02:06:44;;;;;;;106.88;23.58;;;;;;;;;;4983273;28;20141;-67
2022/11/28 02:09:14;;;;;;;81.07;23.58;;;;;;;;;;4983795;28;20225;-68
2022/11/28 02:11:59;;;;;;;105.57;23.85;;;;;;;;;;4984000;28;20054;-67
2022/11/28 02:15:00;;;;;;;106.38;25.35;;;;;;;;;;4983898;28;20887;-67
2022/11/28 02:18:07;;;;;;;105.13;22.20;;;;;;;;;;4977535;28;20522;-67
2022/11/28 02:20:39;;;;;;;97.32;22.50;;;;;;;;;;4978247;28;20054;-68
2022/11/28 02:23:38;;;;;;;74.35;20.98;;;;;;;;;;4983333;28;20060;-67
2022/11/28 02:26:32;;;;;;;84.15;23.23;;;;;;;;;;4998374;28;20034;-67
2022/11/28 02:29:28;;;;;;;74.10;22.88;;;;;;;;;;4982451;28;20058;-68
2022/11/28 02:32:18;;;;;;;123.22;23.67;;;;;;;;;;4983856;28;20058;-67
2022/11/28 02:34:50;;;;;;;128.50;27.10;;;;;;;;;;4980065;28;20054;-67
2022/11/28 02:37:25;;;;;;;198.93;23.88;;;;;;;;;;4982565;28;20058;-67
2022/11/28 02:40:13;;;;;;;149.80;22.13;;;;;;;;;;4982752;28;20126;-68
2022/11/28 02:42:49;;;;;;;85.75;22.45;;;;;;;;;;4983899;28;20415;-68
2022/11/28 02:45:45;;;;;;;83.57;21.48;;;;;;;;;;4983204;28;20058;-69
2022/11/28 02:48:30;;;;;;;64.30;19.67;;;;;;;;;;4983723;28;20046;-68
2022/11/28 02:51:12;;;;;;;59.22;18.92;;;;;;;;;;4982005;28;20050;-68
2022/11/28 02:53:40;;;;;;;49.83;17.40;;;;;;;;;;4983780;28;20503;-67
2022/11/28 02:56:09;;;;;;;46.15;18.13;;;;;;;;;;4983590;28;20116;-66
2022/11/28 02:58:35;;;;;;;42.42;19.35;;;;;;;;;;4982279;28;20050;-67
2022/11/28 03:01:01;;;;;;;39.95;17.17;;;;;;;;;;4981916;28;20061;-68
2022/11/28 03:03:52;;;;;;;45.17;18.98;;;;;;;;;;4983421;28;20152;-68
2022/11/28 03:06:32;;;;;;;40.10;17.30;;;;;;;;;;4983229;28;20050;-68
2022/11/28 03:09:15;;;;;;;48.50;20.45;;;;;;;;;;4982475;28;20050;-68
2022/11/28 03:12:00;;;;;;;45.28;19.08;;;;;;;;;;4982187;28;20430;-68
2022/11/28 03:14:59;;;;;;;39.05;17.30;;;;;;;;;;4983200;28;20521;-68
2022/11/28 03:17:39;;;;;;;41.25;18.20;;;;;;;;;;4980000;28;20050;-69
2022/11/28 03:20:20;;;;;;;51.72;18.30;;;;;;;;;;4982771;28;20046;-66
2022/11/28 03:23:08;;;;;;;92.07;22.40;;;;;;;;;;4982049;28;20046;-66
2022/11/28 03:25:41;;;;;;;118.60;25.27;;;;;;;;;;4980446;28;20451;-66
2022/11/28 03:28:10;;;;;;;161.50;24.63;;;;;;;;;;4997590;28;20073;-66
2022/11/28 03:30:44;;;;;;;88.22;22.35;;;;;;;;;;4982484;28;20049;-66
2022/11/28 03:33:12;;;;;;;164.80;27.10;;;;;;;;;;4981283;28;20058;-66
2022/11/28 03:35:44;;;;;;;113.95;25.42;;;;;;;;;;4982656;28;20077;-65
2022/11/28 03:38:14;;;;;;;;;;;;;;;;;;4983282;28;20043;-66
2022/11/28 03:40:44;;;;;;;80.60;19.15;;;;;;;;;;4982442;28;19934;-65
2022/11/28 03:43:15;;;;;;;93.00;21.25;;;;;;;;;;4982344;28;20581;-67
2022/11/28 03:45:47;;;;;;;54.97;20.77;;;;;;;;;;4981679;28;20057;-68
2022/11/28 03:48:22;;;;;;;66.85;21.95;;;;;;;;;;4982241;28;20046;-67
2022/11/28 03:51:11;;;;;;;61.83;21.08;;;;;;;;;;4982565;28;20116;-68
2022/11/28 03:53:59;;;;;;;45.95;19.40;;;;;;;;;;4979749;28;20077;-67
2022/11/28 03:56:38;;;;;;;50.90;19.58;;;;;;;;;;4980447;28;20053;-67
2022/11/28 03:59:21;;;;;;;39.45;17.75;;;;;;;;;;4981640;28;20517;-68
2022/11/28 04:02:18;;;;;;;46.35;17.35;;;;;;;;;;4981979;28;20622;-68
2022/11/28 04:04:50;;;;;;;42.72;18.42;;;;;;;;;;4997406;28;20061;-68
2022/11/28 04:07:38;;;;;;;57.53;21.13;;;;;;;;;;4979283;28;20133;-68
2022/11/28 04:10:23;;;;;;;41.10;17.95;;;;;;;;;;4996186;28;20046;-68
2022/11/28 04:13:03;;;;;;;54.85;19.83;;;;;;;;;;4982003;28;20050;-67
2022/11/28 04:15:40;;;;;;;41.40;17.58;;;;;;;;;;4979495;28;20046;-67
2022/11/28 04:18:25;;;;;;;40.55;18.13;;;;;;;;;;4981031;28;20486;-67
2022/11/28 04:21:01;;;;;;;40.92;17.13;;;;;;;;;;4981393;28;20098;-68
2022/11/28 04:23:28;;;;;;;38.33;17.60;;;;;;;;;;4979590;28;20476;-67
2022/11/28 04:26:03;;;;;;;37.25;17.85;;;;;;;;;;4981774;28;20073;-67
2022/11/28 04:28:32;;;;;;;43.75;18.45;;;;;;;;;;4981143;28;20169;-68
2022/11/28 04:31:00;;;;;;;48.75;19.08;;;;;;;;;;4980850;28;20145;-67
2022/11/28 04:33:29;;;;;;;54.38;21.42;;;;;;;;;;4981657;28;20077;-67
2022/11/28 04:35:55;;;;;;;57.67;22.40;;;;;;;;;;4980156;28;20074;-67
2022/11/28 04:38:23;;;;;;;56.00;21.05;;;;;;;;;;4981417;28;20081;-66
2022/11/28 04:40:59;;;;;;;49.33;18.55;;;;;;;;;;4980415;28;21037;-67
2022/11/28 04:43:39;;;;;;;50.70;18.33;;;;;;;;;;4979039;28;20046;-66
2022/11/28 04:46:11;;;;;;;45.20;17.67;;;;;;;;;;4981065;28;20050;-67
2022/11/28 04:48:37;;;;;;;56.55;20.20;;;;;;;;;;4980246;28;20046;-67
2022/11/28 04:51:17;;;;;;;50.10;19.38;;;;;;;;;;4979888;28;20053;-66
2022/11/28 04:53:48;;;;;;;46.88;17.48;;;;;;;;;;4980791;28;20046;-68
2022/11/28 04:56:22;;;;;;;59.65;20.70;;;;;;;;;;4981262;28;20117;-67
2022/11/28 04:58:49;;;;;;;39.92;17.25;;;;;;;;;;4981386;28;20099;-67
2022/11/28 05:01:22;;;;;;;47.13;18.58;;;;;;;;;;4979670;28;20065;-67
2022/11/28 05:03:48;;;;;;;41.92;17.58;;;;;;;;;;4981360;28;20407;-68
2022/11/28 05:06:34;;;;;;;40.25;17.85;;;;;;;;;;4980938;28;20054;-69
2022/11/28 05:09:00;;;;;;;43.90;18.33;;;;;;;;;;4980681;28;20061;-69
2022/11/28 05:11:26;;;;;;;40.88;17.85;;;;;;;;;;4981057;28;20058;-68
2022/11/28 05:13:51;;;;;;;33.35;15.60;;;;;;;;;;4980281;28;20137;-69
2022/11/28 05:16:17;;;;;;;37.80;17.48;;;;;;;;;;4980779;28;20847;-68
2022/11/28 05:18:43;;;;;;;37.38;16.70;;;;;;;;;;4981503;28;20469;-69
2022/11/28 05:21:08;;;;;;;29.73;15.95;;;;;;;;;;4981394;28;20046;-68
2022/11/28 05:23:39;;;;;;;34.53;17.13;;;;;;;;;;4984114;28;20061;-69
2022/11/28 05:26:10;;;;;;;36.80;17.63;;;;;;;;;;4981740;28;20046;-68
2022/11/28 05:28:36;;;;;;;31.45;14.73;;;;;;;;;;4983838;28;20392;-68
2022/11/28 05:31:02;;;;;;;34.95;15.98;;;;;;;;;;4982784;28;20081;-69
2022/11/28 05:33:29;;;;;;;31.80;15.45;;;;;;;;;;4983543;28;20133;-68
2022/11/28 05:35:56;;;;;;;34.13;15.63;;;;;;;;;;4980948;28;20418;-68
2022/11/28 05:38:21;;;;;;;43.15;18.50;;;;;;;;;;4984660;28;20050;-69
2022/11/28 05:40:47;;;;;;;37.50;16.23;;;;;;;;;;4984628;28;20065;-69
2022/11/28 05:43:13;;;;;;;46.00;21.13;;;;;;;;;;4984463;28;20185;-68
2022/11/28 05:45:40;;;;;;;80.88;28.80;;;;;;;;;;4983372;28;20050;-68
2022/11/28 05:48:05;;;;;;;32.47;15.00;;;;;;;;;;4984255;28;20061;-68
2022/11/28 05:50:31;;;;;;;27.23;14.00;;;;;;;;;;4984011;28;20049;-70
2022/11/28 05:52:56;;;;;;;29.05;14.13;;;;;;;;;;4983744;28;20042;-69
2022/11/28 05:55:22;;;;;;;34.97;19.17;;;;;;;;;;4983545;28;20050;-69
2022/11/28 05:57:47;;;;;;;21.85;11.55;;;;;;;;;;4980348;28;20070;-67
2022/11/28 06:00:13;;;;;;;18.40;9.93;;;;;;;;;;4975022;28;20145;-68
2022/11/28 06:02:39;;;;;;;23.77;11.68;;;;;;;;;;4982608;28;20568;-68
2022/11/28 06:05:05;;;;;;;11.48;7.10;;;;;;;;;;4982169;28;20061;-67
2022/11/28 06:07:30;;;;;;;15.52;10.00;;;;;;;;;;4982412;28;20042;-70
2022/11/28 06:09:56;;;;;;;16.58;9.40;;;;;;;;;;4980378;28;20419;-69
2022/11/28 06:12:21;;;;;;;24.73;12.98;;;;;;;;;;4982394;28;20674;-68
2022/11/28 06:14:47;;;;;;;14.95;9.30;;;;;;;;;;4997721;28;20911;-68
2022/11/28 06:17:12;;;;;;;24.08;11.73;;;;;;;;;;4980876;28;20046;-69
2022/11/28 06:19:37;;;;;;;26.10;12.80;;;;;;;;;;4977849;28;20411;-68
2022/11/28 06:22:03;;;;;;;21.20;12.68;;;;;;;;;;4980868;28;20081;-69
2022/11/28 06:24:28;;;;;;;21.05;12.07;;;;;;;;;;4980854;28;20157;-68
2022/11/28 06:26:54;;;;;;;23.00;11.95;;;;;;;;;;4980939;28;20482;-69
2022/11/28 06:29:19;;;;;;;20.40;11.43;;;;;;;;;;4979583;28;20101;-70
2022/11/28 06:31:45;;;;;;;20.85;11.68;;;;;;;;;;4964731;28;20523;-68
2022/11/28 06:34:14;;;;;;;20.63;11.25;;;;;;;;;;4982454;28;20625;-69
2022/11/28 06:36:39;;;;;;;20.08;10.95;;;;;;;;;;4982543;28;20054;-69
2022/11/28 06:39:05;;;;;;;19.73;11.57;;;;;;;;;;4982620;28;20057;-68
2022/11/28 06:41:31;;;;;;;25.55;12.23;;;;;;;;;;4982271;28;20054;-70
2022/11/28 06:43:56;;;;;;;20.05;11.23;;;;;;;;;;4983456;28;20503;-68
2022/11/28 06:46:22;;;;;;;23.52;13.80;;;;;;;;;;4982866;28;20569;-70
2022/11/28 06:48:50;;;;;;;20.17;11.35;;;;;;;;;;4983280;28;20046;-68
2022/11/28 06:51:16;;;;;;;25.98;14.65;;;;;;;;;;4981909;28;20058;-68
2022/11/28 06:53:41;;;;;;;23.90;12.48;;;;;;;;;;4983103;28;20054;-68
2022/11/28 06:56:10;;;;;;;20.52;11.75;;;;;;;;;;4998755;28;20516;-68
2022/11/28 06:58:36;;;;;;;29.70;13.25;;;;;;;;;;4983144;28;20050;-69
2022/11/28 07:01:09;;;;;;;21.08;11.93;;;;;;;;;;4982885;28;20082;-70
2022/11/28 07:03:35;;;;;;;19.75;11.07;;;;;;;;;;4982696;28;20443;-69
2022/11/28 07:06:01;;;;;;;20.67;11.45;;;;;;;;;;4982980;28;21080;-68
2022/11/28 07:08:27;;;;;;;17.73;10.50;;;;;;;;;;4981656;28;20054;-69
2022/11/28 07:10:52;;;;;;;21.40;11.23;;;;;;;;;;4981076;28;20168;-70
2022/11/28 07:13:18;;;;;;;19.70;11.18;;;;;;;;;;4980062;28;20054;-68
2022/11/28 07:15:49;;;;;;;18.40;10.98;;;;;;;;;;4981245;28;20034;-69
2022/11/28 07:18:14;;;;;;;19.00;10.55;;;;;;;;;;4981180;28;20050;-69
2022/11/28 07:20:39;;;;;;;18.52;10.57;;;;;;;;;;4981557;28;20045;-68
2022/11/28 07:23:06;;;;;;;19.02;10.77;;;;;;;;;;4980050;28;20038;-69
2022/11/28 07:25:31;;;;;;;22.40;11.70;;;;;;;;;;4982621;28;20042;-70
2022/11/28 07:27:58;;;;;;;19.33;11.05;;;;;;;;;;4982651;28;20065;-69
2022/11/28 07:30:24;;;;;;;21.05;12.60;;;;;;;;;;4982450;28;20064;-69
2022/11/28 07:32:49;;;;;;;23.30;13.02;;;;;;;;;;4982694;28;20503;-68
2022/11/28 07:35:15;;;;;;;17.67;10.57;;;;;;;;;;4981197;28;20058;-69
2022/11/28 07:37:40;;;;;;;16.35;10.40;;;;;;;;;;4982159;28;20050;-69
2022/11/28 07:40:06;;;;;;;19.15;12.10;;;;;;;;;;4982183;28;20101;-70
2022/11/28 07:42:32;;;;;;;19.80;11.20;;;;;;;;;;4982523;28;20042;-69
2022/11/28 07:45:03;;;;;;;18.60;10.52;;;;;;;;;;4980950;28;20040;-69
2022/11/28 07:47:28;;;;;;;21.63;10.88;;;;;;;;;;4981398;28;20081;-70
2022/11/28 07:49:54;;;;;;;18.45;11.23;;;;;;;;;;4996738;28;20617;-69
2022/11/28 07:52:19;;;;;;;17.40;10.43;;;;;;;;;;4981988;28;20097;-70
2022/11/28 07:54:45;;;;;;;19.48;12.05;;;;;;;;;;4982241;28;20081;-70
2022/11/28 07:57:10;;;;;;;16.17;10.20;;;;;;;;;;4980553;28;20101;-70
2022/11/28 07:59:35;;;;;;;17.73;10.65;;;;;;;;;;4981986;28;20054;-70
2022/11/28 08:02:01;;;;;;;17.05;10.13;;;;;;;;;;4982211;28;20046;-69
2022/11/28 08:04:26;;;;;;;19.55;11.38;;;;;;;;;;4982122;28;20093;-70
2022/11/28 08:06:52;;;;;;;17.20;9.93;;;;;;;;;;4980268;28;20042;-70
2022/11/28 08:09:18;;;;;;;18.35;10.45;;;;;;;;;;4980788;28;20057;-69
2022/11/28 08:11:43;;;;;;;19.63;11.02;;;;;;;;;;4982007;28;20069;-69
2022/11/28 08:14:09;;;;;;;18.73;10.48;;;;;;;;;;4981704;28;20043;-70
2022/11/28 08:16:35;;;;;;;17.15;10.88;;;;;;;;;;4981617;28;20042;-67
2022/11/28 08:19:02;;;;;;;17.10;10.60;;;;;;;;;;4980720;28;20548;-68
2022/11/28 08:21:31;;;;;;;16.58;9.80;;;;;;;;;;4981259;28;20100;-68
2022/11/28 08:24:01;;;;;;;17.17;10.45;;;;;;;;;;4981972;28;20057;-68
2022/11/28 08:26:27;;;;;;;17.00;10.75;;;;;;;;;;4981893;28;20133;-67
2022/11/28 08:28:53;;;;;;;18.30;10.63;;;;;;;;;;4981204;28;20034;-67
2022/11/28 08:31:22;;;;;;;18.38;11.30;;;;;;;;;;4980264;28;20506;-68
2022/11/28 08:33:49;;;;;;;17.30;10.55;;;;;;;;;;4981654;28;20050;-67
2022/11/28 08:36:16;;;;;;;16.13;10.27;;;;;;;;;;4981472;28;20042;-68
2022/11/28 08:38:45;;;;;;;17.60;10.40;;;;;;;;;;4981181;28;20078;-68
2022/11/28 08:41:14;;;;;;;19.10;10.30;;;;;;;;;;4978335;28;21176;-70
2022/11/28 08:43:40;;;;;;;17.45;10.35;;;;;;;;;;4980770;28;20070;-68
2022/11/28 08:46:09;;;;;;;19.33;11.25;;;;;;;;;;4981490;28;20038;-69
2022/11/28 08:48:35;;;;;;;16.98;10.57;;;;;;;;;;4979586;28;20046;-69
2022/11/28 08:51:00;;;;;;;17.55;9.88;;;;;;;;;;4980901;28;20418;-68
2022/11/28 08:53:26;;;;;;;14.88;9.68;;;;;;;;;;4980399;28;20047;-68
2022/11/28 08:55:52;;;;;;;15.90;8.88;;;;;;;;;;4980864;28;20866;-68
2022/11/28 08:58:17;;;;;;;15.07;9.20;;;;;;;;;;4981214;28;20105;-68
2022/11/28 09:00:42;;;;;;;13.40;8.52;;;;;;;;;;4981152;28;20062;-69
2022/11/28 09:03:16;;;;;;;14.90;9.05;;;;;;;;;;4972698;28;20058;-68
2022/11/28 09:05:46;;;;;;;14.98;9.15;;;;;;;;;;4977424;28;20407;-68
2022/11/28 09:08:13;;;;;;;14.95;8.45;;;;;;;;;;4977828;28;20046;-69
2022/11/28 09:10:40;;;;;;;14.05;9.95;;;;;;;;;;4978832;28;20045;-68
2022/11/28 09:13:06;;;;;;;14.80;9.20;;;;;;;;;;4979423;28;20120;-71
2022/11/28 09:15:32;;;;;;;15.27;8.93;;;;;;;;;;4978765;28;20042;-68
2022/11/28 09:17:57;;;;;;;14.10;9.63;;;;;;;;;;4980242;28;20053;-69
2022/11/28 09:20:23;;;;;;;15.95;9.40;;;;;;;;;;4980741;28;20080;-68
2022/11/28 09:22:48;;;;;;;14.35;9.40;;;;;;;;;;4980633;28;20046;-70
2022/11/28 09:25:14;;;;;;;16.58;10.40;;;;;;;;;;4979232;28;20066;-69
2022/11/28 09:27:40;;;;;;;13.55;8.40;;;;;;;;;;4980506;28;20050;-69
2022/11/28 09:30:07;;;;;;;14.00;9.02;;;;;;;;;;4980077;28;20070;-70
2022/11/28 09:32:33;;;;;;;14.05;8.65;;;;;;;;;;4980557;28;20046;-69
2022/11/28 09:34:58;;;;;;;13.75;9.27;;;;;;;;;;4979211;28;20053;-70
2022/11/28 09:37:24;;;;;;;17.52;9.25;;;;;;;;;;4978936;28;20467;-72
2022/11/28 09:39:50;;;;;;;13.57;8.85;;;;;;;;;;4979438;28;20058;-69
2022/11/28 09:42:29;;;;;;;14.82;8.45;;;;;;;;;;4994045;28;20042;-70
2022/11/28 09:45:05;;;;;;;14.10;8.95;;;;;;;;;;4980018;28;20189;-70
2022/11/28 09:47:33;;;;;;;13.45;8.30;;;;;;;;;;4976197;28;20526;-69
2022/11/28 09:50:04;;;;;;;16.75;9.20;;;;;;;;;;4979668;28;20521;-69
2022/11/28 09:52:47;;;;;;;14.27;9.07;;;;;;;;;;4978258;28;20046;-71
2022/11/28 09:55:34;;;;;;;13.65;8.70;;;;;;;;;;4979681;28;20109;-70
2022/11/28 09:58:07;;;;;;;12.77;8.38;;;;;;;;;;4979057;28;20129;-69
2022/11/28 10:00:58;;;;;;;13.13;8.88;;;;;;;;;;4978949;28;20559;-69
2022/11/28 10:03:51;;;;;;;12.38;8.63;;;;;;;;;;4979179;28;20133;-74
2022/11/28 10:06:24;;;;;;;13.07;8.70;;;;;;;;;;4980017;28;20073;-69
2022/11/28 10:09:17;;;;;;;14.95;8.65;;;;;;;;;;4982450;28;21159;-72
2022/11/28 10:12:11;;;;;;;15.45;8.98;;;;;;;;;;4980751;28;20049;-71
2022/11/28 10:14:39;;;;;;;15.68;9.18;;;;;;;;;;4982349;28;20074;-68
2022/11/28 10:17:30;;;;;;;20.08;9.77;;;;;;;;;;4982480;28;20105;-72
2022/11/28 10:20:12;;;;;;;14.13;9.07;;;;;;;;;;4982555;28;20054;-71
2022/11/28 10:22:58;;;;;;;13.73;9.60;;;;;;;;;;4981630;28;20046;-70
2022/11/28 10:25:27;;;;;;;15.68;8.93;;;;;;;;;;4982474;28;20057;-69
2022/11/28 10:27:54;;;;;;;13.85;8.60;;;;;;;;;;4983231;28;20062;-70
2022/11/28 10:30:25;;;;;;;12.27;8.07;;;;;;;;;;4980772;28;20142;-70
2022/11/28 10:33:19;;;;;;;11.67;7.70;;;;;;;;;;4982965;28;20054;-68
2022/11/28 10:35:56;;;;;;;11.95;7.40;;;;;;;;;;4980325;28;20281;-71
2022/11/28 10:38:24;;;;;;;11.35;7.88;;;;;;;;;;4982979;28;20081;-72
2022/11/28 10:40:57;;;;;;;14.02;8.57;;;;;;;;;;4983097;28;20130;-69
2022/11/28 10:43:45;;;;;;;13.77;8.77;;;;;;;;;;4981680;28;20385;-68
2022/11/28 10:46:28;;;;;;;13.15;8.45;;;;;;;;;;4982484;28;20043;-69
2022/11/28 10:49:38;;;;;;;11.25;8.13;;;;;;;;;;4982679;28;20058;-69
2022/11/28 10:52:10;;;;;;;16.27;7.93;;;;;;;;;;4903182;29;20135;-71
2022/11/28 10:55:02;;;;;;;15.50;9.13;;;;;;;;;;4971839;28;20046;-71
2022/11/28 10:57:57;;;;;;;13.18;8.52;;;;;;;;;;4963930;28;20078;-69
2022/11/28 11:00:22;;;;;;;12.75;8.07;;;;;;;;;;4980486;28;20046;-69
2022/11/28 11:02:51;;;;;;;13.18;8.90;;;;;;;;;;4982493;28;20730;-73
2022/11/28 11:05:30;;;;;;;13.10;8.90;;;;;;;;;;4981104;28;20136;-71
2022/11/28 11:08:01;;;;;;;12.57;8.07;;;;;;;;;;4981981;28;20948;-74
2022/11/28 11:10:35;;;;;;;15.70;8.67;;;;;;;;;;4982663;28;20934;-71
2022/11/28 11:13:15;;;;;;;11.25;7.78;;;;;;;;;;4981890;28;20056;-69
2022/11/28 11:15:41;;;;;;;14.75;9.13;;;;;;;;;;4980835;28;20049;-71
2022/11/28 11:18:33;;;;;;;11.95;8.05;;;;;;;;;;4981220;28;20046;-69
2022/11/28 11:21:12;;;;;;;11.13;7.45;;;;;;;;;;4981375;28;20050;-70
2022/11/28 11:23:38;;;;;;;12.00;7.95;;;;;;;;;;4982275;28;20113;-73
2022/11/28 11:26:04;;;;;;;11.57;8.15;;;;;;;;;;4981303;28;20042;-70
2022/11/28 11:28:30;;;;;;;12.13;8.20;;;;;;;;;;4981440;28;20053;-70
2022/11/28 11:31:00;;;;;;;11.88;8.25;;;;;;;;;;4981628;28;20117;-70
2022/11/28 11:33:32;;;;;;;12.70;7.80;;;;;;;;;;4981820;28;20042;-73
2022/11/28 11:35:58;;;;;;;14.32;9.15;;;;;;;;;;4982094;28;20396;-70
2022/11/28 11:38:24;;;;;;;12.25;8.25;;;;;;;;;;4980719;28;20499;-71
2022/11/28 11:40:50;;;;;;;13.00;8.80;;;;;;;;;;4981711;28;20056;-72
2022/11/28 11:43:31;;;;;;;21.13;8.95;;;;;;;;;;4981395;28;20546;-69
2022/11/28 11:46:11;;;;;;;21.85;8.63;;;;;;;;;;4981752;28;20165;-74
2022/11/28 11:48:55;;;;;;;11.55;8.30;;;;;;;;;;4980959;28;20132;-70
2022/11/28 11:51:28;;;;;;;14.02;8.40;;;;;;;;;;4980544;28;20054;-71
2022/11/28 11:54:13;;;;;;;12.75;8.40;;;;;;;;;;4981490;28;20419;-70
2022/11/28 11:56:43;;;;;;;12.05;8.20;;;;;;;;;;4981773;28;20514;-70
2022/11/28 11:59:28;;;;;;;16.80;9.23;;;;;;;;;;4980552;28;20074;-69
2022/11/28 12:02:01;;;;;;;12.23;8.55;;;;;;;;;;4981030;28;20056;-68
2022/11/28 12:04:37;;;;;;;17.17;9.43;;;;;;;;;;4981481;28;20482;-69
2022/11/28 12:07:06;;;;;;;17.75;9.95;;;;;;;;;;4980776;28;20049;-70
2022/11/28 12:09:46;;;;;;;15.57;9.63;;;;;;;;;;4980494;28;20046;-69
2022/11/28 12:12:28;;;;;;;15.68;8.93;;;;;;;;;;4981007;28;20054;-70
2022/11/28 12:14:54;;;;;;;13.98;9.23;;;;;;;;;;4981430;28;20830;-71
2022/11/28 12:17:40;;;;;;;13.40;9.15;;;;;;;;;;4979809;28;20112;-69
2022/11/28 12:20:23;;;;;;;15.98;9.70;;;;;;;;;;4980972;28;20054;-71
2022/11/28 12:23:16;;;;;;;18.38;10.52;;;;;;;;;;4980849;28;20148;-69
2022/11/28 12:25:41;;;;;;;;;;;;;;;;;;4979525;28;20181;-70
2022/11/28 12:28:32;;;;;;;14.55;9.52;;;;;;;;;;4980855;28;20361;-71
2022/11/28 12:31:22;;;;;;;19.65;10.05;;;;;;;;;;4980201;28;20065;-71
2022/11/28 12:33:51;;;;;;;17.15;9.48;;;;;;;;;;4980771;28;20050;-68
2022/11/28 12:36:35;;;;;;;14.32;9.43;;;;;;;;;;4994240;28;20057;-70
2022/11/28 12:39:30;;;;;;;14.63;8.48;;;;;;;;;;4978998;28;20061;-70
2022/11/28 12:42:16;;;;;;;14.95;9.68;;;;;;;;;;4978852;28;20054;-71
2022/11/28 12:45:04;;;;;;;13.98;8.43;;;;;;;;;;4979254;28;20042;-70
2022/11/28 12:48:01;;;;;;;11.82;8.32;;;;;;;;;;4975601;28;20054;-71
2022/11/28 12:50:38;;;;;;;12.35;8.40;;;;;;;;;;4961406;28;20644;-70
2022/11/28 12:53:28;;;;;;;13.45;9.07;;;;;;;;;;4979526;28;20137;-71
2022/11/28 12:56:21;;;;;;;12.85;8.20;;;;;;;;;;4978944;28;20061;-70
2022/11/28 12:58:57;;;;;;;14.07;8.98;;;;;;;;;;4980492;28;20525;-71
2022/11/28 13:01:44;;;;;;;13.20;8.38;;;;;;;;;;4995247;28;20054;-70
2022/11/28 13:04:28;;;;;;;12.77;8.70;;;;;;;;;;4979639;28;20054;-71
2022/11/28 13:07:00;;;;;;;15.90;8.73;;;;;;;;;;4979440;28;20080;-69
2022/11/28 13:09:31;;;;;;;13.00;8.65;;;;;;;;;;4978623;28;20479;-71
2022/11/28 13:12:10;;;;;;;14.18;9.45;;;;;;;;;;4978752;28;20089;-68
2022/11/28 13:15:01;;;;;;;15.90;9.40;;;;;;;;;;4980091;28;20487;-71
2022/11/28 13:17:56;;;;;;;11.50;8.68;;;;;;;;;;4977698;28;20049;-70
2022/11/28 13:20:32;;;;;;;16.60;9.00;;;;;;;;;;4979873;28;20105;-71
2022/11/28 13:23:10;;;;;;;17.40;9.82;;;;;;;;;;4980160;28;20073;-73
2022/11/28 13:25:54;;;;;;;17.33;8.88;;;;;;;;;;4980821;28;20054;-70
2022/11/28 13:28:19;;;;;;;14.30;9.95;;;;;;;;;;4979849;28;20077;-69
2022/11/28 13:30:51;;;;;;;14.82;9.68;;;;;;;;;;4980633;28;20042;-70
2022/11/28 13:33:46;;;;;;;15.32;9.45;;;;;;;;;;4980173;28;20046;-69
2022/11/28 13:36:24;;;;;;;15.43;9.30;;;;;;;;;;4980621;28;20089;-70
2022/11/28 13:39:01;;;;;;;15.25;9.57;;;;;;;;;;4978518;28;20112;-70
2022/11/28 13:41:40;;;;;;;12.88;8.88;;;;;;;;;;4979989;28;20171;-70
2022/11/28 13:44:27;;;;;;;14.43;8.77;;;;;;;;;;4984022;28;21115;-69
2022/11/28 13:46:53;;;;;;;14.15;9.23;;;;;;;;;;4984219;28;20042;-69
2022/11/28 13:49:21;;;;;;;19.33;10.20;;;;;;;;;;4981577;28;20410;-70
2022/11/28 13:51:47;;;;;;;16.13;9.95;;;;;;;;;;4997560;28;20054;-69
2022/11/28 13:54:16;;;;;;;13.30;9.52;;;;;;;;;;4980226;28;20621;-69
2022/11/28 13:56:44;;;;;;;16.35;10.10;;;;;;;;;;4982215;28;20104;-69
2022/11/28 13:59:19;;;;;;;15.45;10.00;;;;;;;;;;4994694;28;20042;-70
2022/11/28 14:01:47;;;;;;;16.92;9.85;;;;;;;;;;4981670;28;20053;-69
2022/11/28 14:04:16;;;;;;;18.23;10.00;;;;;;;;;;4981258;28;20559;-68
2022/11/28 14:06:49;;;;;;;19.75;10.65;;;;;;;;;;4983215;28;20049;-68
2022/11/28 14:09:14;;;;;;;16.40;10.70;;;;;;;;;;4981765;28;20042;-69
2022/11/28 14:12:02;;;;;;;14.05;9.25;;;;;;;;;;4980581;28;20057;-69
2022/11/28 14:15:06;;;;;;;16.67;9.85;;;;;;;;;;4982756;28;20119;-70
2022/11/28 14:17:40;;;;;;;16.27;10.32;;;;;;;;;;4980197;28;20125;-69
2022/11/28 14:20:15;;;;;;;15.77;10.27;;;;;;;;;;4980833;28;20053;-69
2022/11/28 14:23:04;;;;;;;19.33;10.27;;;;;;;;;;4981588;28;20141;-68
2022/11/28 14:25:46;;;;;;;17.23;9.82;;;;;;;;;;4980585;28;20132;-68
2022/11/28 14:28:36;;;;;;;18.60;11.97;;;;;;;;;;4982134;28;20502;-68
2022/11/28 14:31:26;;;;;;;15.52;10.57;;;;;;;;;;4979543;28;20281;-69
2022/11/28 14:34:39;;;;;;;18.70;10.73;;;;;;;;;;4981698;28;20077;-70
2022/11/28 14:37:18;;;;;;;19.70;11.27;;;;;;;;;;4979129;28;20042;-69
2022/11/28 14:39:44;;;;;;;18.50;10.80;;;;;;;;;;4982628;28;20046;-68
2022/11/28 14:42:12;;;;;;;16.42;10.30;;;;;;;;;;4981223;28;20046;-68
2022/11/28 14:44:53;;;;;;;15.52;10.48;;;;;;;;;;4980754;28;20046;-68
2022/11/28 14:47:41;;;;;;;18.13;10.68;;;;;;;;;;4980354;28;20966;-69
2022/11/28 14:50:08;;;;;;;21.08;12.27;;;;;;;;;;4979003;28;20034;-69
2022/11/28 14:52:34;;;;;;;20.80;12.18;;;;;;;;;;4978001;28;20093;-70
2022/11/28 14:55:24;;;;;;;19.98;11.35;;;;;;;;;;4977698;28;20046;-70